Allison, Colorado
Current Conditions -  °F | °C
As of 1:53 PM on Tuesday 27 Jan 2015 (Local Time) from KDRO Reporting Station
Overcast Overcast  
Wind Chill: 47°   Ceiling: 4300
Heat Index: 49°   Visibility: 10mi
Dew Point: 27°   Wind: 6mph
Humidity: 43%   Direction: 230°SW
Pressure: 30.31"   Gusts: NA
Location:  37.0891°N, 107.649°W
Report Text: KDRO 272053Z AUTO 23005KT 10SM BKN043 OVC055 09/M03 A3031 RMK AO2 RAB19E29 SLP260 P0000 60000 T00941028 57019
Loading
Personal Weather Stations






























Interactive Weather Map New forecast layout! Learn more

10-Day Weather Forecast

Advertisements
Track Severe Weather on mobile